createdAt,value
2018-10-09T00:00:14.660Z,70.03
2018-10-09T00:02:43.480Z,74.73
2018-10-09T00:05:12.261Z,75.53
2018-10-09T00:07:41.031Z,78.60
2018-10-09T00:10:09.908Z,80.00
2018-10-09T00:12:38.808Z,74.63
2018-10-09T00:15:07.837Z,76.33
2018-10-09T00:17:36.672Z,78.07
2018-10-09T00:20:06.115Z,79.53
2018-10-09T00:22:34.896Z,82.83
2018-10-09T00:25:03.714Z,77.73
2018-10-09T00:27:32.528Z,80.07
2018-10-09T00:30:01.326Z,76.23
2018-10-09T00:32:30.139Z,80.87
2018-10-09T00:34:58.968Z,80.10
2018-10-09T00:37:27.761Z,80.40
2018-10-09T00:39:56.596Z,77.17
2018-10-09T00:42:25.452Z,80.10
2018-10-09T00:44:54.267Z,80.50
2018-10-09T00:47:23.096Z,76.77
2018-10-09T00:49:51.969Z,77.43
2018-10-09T00:52:20.897Z,87.57
2018-10-09T00:54:49.825Z,80.67
2018-10-09T00:57:18.800Z,80.30
2018-10-09T00:59:47.607Z,83.50
2018-10-09T01:02:16.424Z,78.03
2018-10-09T01:04:45.257Z,77.40
2018-10-09T01:07:14.046Z,79.93
2018-10-09T01:09:42.819Z,77.37
2018-10-09T01:12:11.588Z,83.63
2018-10-09T01:14:40.420Z,83.67
2018-10-09T01:17:10.004Z,87.20
2018-10-09T01:19:38.848Z,86.93
2018-10-09T01:22:08.301Z,90.07
2018-10-09T01:24:37.156Z,90.93
2018-10-09T01:27:05.847Z,95.70
2018-10-09T01:29:34.865Z,95.90
2018-10-09T01:32:03.719Z,97.93
2018-10-09T01:34:32.543Z,103.50
2018-10-09T01:37:01.361Z,98.10
2018-10-09T01:39:30.061Z,103.30
2018-10-09T01:41:58.833Z,102.77
2018-10-09T01:44:27.604Z,110.33
2018-10-09T01:46:56.401Z,103.17
2018-10-09T01:49:25.157Z,116.20
2018-10-09T01:51:54.020Z,109.73
2018-10-09T01:54:22.809Z,107.10
2018-10-09T01:56:51.509Z,104.63
2018-10-09T01:59:20.298Z,106.10
2018-10-09T02:01:49.125Z,106.83
2018-10-09T02:04:17.898Z,103.30
2018-10-09T02:06:46.775Z,97.43
2018-10-09T02:09:15.535Z,92.90
2018-10-09T02:11:44.375Z,94.10
2018-10-09T02:14:13.133Z,92.67
2018-10-09T02:16:41.893Z,92.27
2018-10-09T02:19:10.903Z,87.20
2018-10-09T02:21:39.720Z,90.80
2018-10-09T02:24:08.500Z,86.20
2018-10-09T02:26:37.302Z,82.50
2018-10-09T02:29:06.203Z,80.97
2018-10-09T02:31:34.921Z,83.33
2018-10-09T02:34:03.720Z,76.90
2018-10-09T02:36:32.539Z,78.47
2018-10-09T02:39:01.322Z,74.50
2018-10-09T02:41:30.097Z,76.20
2018-10-09T02:43:58.853Z,73.57
2018-10-09T02:46:27.633Z,73.63
2018-10-09T02:48:56.364Z,71.03
2018-10-09T02:51:25.149Z,69.30
2018-10-09T02:53:53.888Z,67.33
2018-10-09T02:56:22.656Z,67.03
2018-10-09T02:58:51.467Z,67.80
2018-10-09T03:01:20.184Z,68.17
2018-10-09T03:03:48.989Z,66.47
2018-10-09T03:06:17.759Z,65.57
2018-10-09T03:08:46.508Z,65.03
2018-10-09T03:11:15.263Z,66.23
2018-10-09T03:13:44.106Z,65.23
2018-10-09T03:16:12.800Z,63.90
2018-10-09T03:18:41.581Z,66.50
2018-10-09T03:21:10.316Z,64.50
2018-10-09T03:23:39.237Z,69.97
2018-10-09T03:26:08.234Z,65.33
2018-10-09T03:28:37.005Z,66.83
2018-10-09T03:31:05.883Z,66.23
2018-10-09T03:33:34.671Z,68.67
2018-10-09T03:36:03.592Z,71.80
2018-10-09T03:38:32.326Z,67.90
2018-10-09T03:41:01.344Z,69.60
2018-10-09T03:43:30.065Z,67.57
2018-10-09T03:45:58.830Z,67.90
2018-10-09T03:48:27.672Z,65.63
2018-10-09T03:50:56.408Z,68.00
2018-10-09T03:53:25.431Z,67.30
2018-10-09T03:55:54.180Z,69.60
2018-10-09T03:58:22.967Z,69.23
2018-10-09T04:00:51.740Z,67.07
2018-10-09T04:03:20.502Z,64.13
2018-10-09T04:05:49.221Z,68.20
2018-10-09T04:08:18.223Z,64.57
2018-10-09T04:10:46.953Z,60.87
2018-10-09T04:13:15.679Z,63.30
2018-10-09T04:15:44.532Z,61.50
2018-10-09T04:18:13.328Z,61.70
2018-10-09T04:20:42.076Z,58.33
2018-10-09T04:23:10.836Z,57.00
2018-10-09T04:25:39.608Z,60.80
2018-10-09T04:28:08.389Z,61.03
2018-10-09T04:30:37.136Z,60.47
2018-10-09T04:33:06.056Z,61.20
2018-10-09T04:35:34.754Z,59.77
2018-10-09T04:38:03.845Z,59.40
2018-10-09T04:40:32.605Z,59.53
2018-10-09T04:43:01.566Z,60.30
2018-10-09T04:45:30.641Z,59.77
2018-10-09T04:48:00.714Z,57.80
2018-10-09T04:50:29.861Z,56.77
2018-10-09T04:52:59.100Z,57.77
2018-10-09T04:55:27.909Z,58.20
2018-10-09T04:57:56.769Z,58.63
2018-10-09T05:00:25.654Z,59.67
2018-10-09T05:02:54.476Z,58.60
2018-10-09T05:05:23.393Z,59.03
2018-10-09T05:07:52.218Z,59.37
2018-10-09T05:10:21.027Z,58.83
2018-10-09T05:12:49.809Z,59.33
2018-10-09T05:15:18.665Z,57.83
2018-10-09T05:17:47.413Z,56.20
2018-10-09T05:20:16.242Z,59.20
2018-10-09T05:22:45.060Z,58.87
2018-10-09T05:25:13.874Z,58.97
2018-10-09T05:27:42.654Z,60.70
2018-10-09T05:30:11.431Z,59.70
2018-10-09T05:32:40.267Z,60.93
2018-10-09T05:35:09.069Z,61.70
2018-10-09T05:37:37.960Z,59.20
2018-10-09T05:40:06.805Z,61.80
2018-10-09T05:42:35.698Z,60.37
2018-10-09T05:45:04.656Z,57.53
2018-10-09T05:47:33.444Z,57.40
2018-10-09T05:50:02.228Z,56.83
2018-10-09T05:52:31.016Z,56.07
2018-10-09T05:54:59.825Z,56.07
2018-10-09T05:57:28.539Z,58.73
2018-10-09T05:59:57.345Z,56.17
2018-10-09T06:02:26.181Z,57.10
2018-10-09T06:04:54.961Z,61.13
2018-10-09T06:07:24.277Z,63.30
2018-10-09T06:09:53.056Z,62.30
2018-10-09T06:12:21.793Z,67.00
2018-10-09T06:14:50.562Z,68.40
2018-10-09T06:17:19.305Z,66.30
2018-10-09T06:19:48.057Z,70.20
2018-10-09T06:22:16.897Z,70.33
2018-10-09T06:24:45.639Z,68.83
2018-10-09T06:27:14.377Z,70.30
2018-10-09T06:29:43.209Z,69.83
2018-10-09T06:32:11.980Z,69.77
2018-10-09T06:34:40.775Z,70.83
2018-10-09T06:37:09.589Z,70.13
2018-10-09T06:39:38.280Z,67.37
2018-10-09T06:42:07.122Z,69.30
2018-10-09T06:44:35.888Z,69.27
2018-10-09T06:47:04.608Z,67.50
2018-10-09T06:49:33.334Z,69.10
2018-10-09T06:52:02.548Z,70.70
2018-10-09T06:54:31.485Z,72.67
2018-10-09T06:57:00.283Z,68.47
2018-10-09T06:59:29.052Z,71.43
2018-10-09T07:01:57.802Z,70.13
2018-10-09T07:04:26.551Z,70.00
2018-10-09T07:06:55.391Z,69.03
2018-10-09T07:09:24.195Z,61.57
2018-10-09T07:11:52.965Z,59.33
2018-10-09T07:14:21.973Z,60.77
2018-10-09T07:16:51.042Z,59.63
2018-10-09T07:19:19.809Z,57.10
2018-10-09T07:21:48.597Z,59.80
2018-10-09T07:24:17.725Z,58.90
2018-10-09T07:26:46.484Z,59.13
2018-10-09T07:29:15.267Z,59.20
2018-10-09T07:31:44.029Z,58.50
2018-10-09T07:34:12.748Z,56.50
2018-10-09T07:36:41.764Z,54.13
2018-10-09T07:39:12.470Z,56.40
2018-10-09T07:41:41.449Z,58.47
2018-10-09T07:44:10.214Z,55.03
2018-10-09T07:46:38.966Z,56.63
2018-10-09T07:49:07.737Z,55.63
2018-10-09T07:51:36.455Z,54.77
2018-10-09T07:54:05.246Z,55.20
2018-10-09T07:56:34.070Z,55.63
2018-10-09T07:59:03.285Z,55.40
2018-10-09T08:01:32.020Z,57.20
2018-10-09T08:04:00.829Z,58.00
2018-10-09T08:06:29.575Z,56.70
2018-10-09T08:08:58.595Z,52.97
2018-10-09T08:11:27.330Z,54.87
2018-10-09T08:13:56.075Z,53.33
2018-10-09T08:16:25.274Z,53.70
2018-10-09T08:18:53.924Z,52.90
2018-10-09T08:21:22.688Z,50.13
2018-10-09T08:23:51.572Z,51.13
2018-10-09T08:26:20.429Z,50.50
2018-10-09T08:28:49.178Z,53.80
2018-10-09T08:31:17.981Z,54.03
2018-10-09T08:33:46.692Z,52.70
2018-10-09T08:36:15.429Z,51.20
2018-10-09T08:38:45.194Z,51.80
2018-10-09T08:41:13.987Z,52.13
2018-10-09T08:43:42.716Z,51.70
2018-10-09T08:46:11.520Z,50.80
2018-10-09T08:48:41.202Z,51.50
2018-10-09T08:51:10.014Z,49.63
2018-10-09T08:53:38.847Z,51.60
2018-10-09T08:56:07.777Z,50.50
2018-10-09T08:58:37.806Z,48.73
2018-10-09T09:01:06.628Z,48.50
2018-10-09T09:03:35.417Z,52.23
2018-10-09T09:06:04.178Z,51.13
2018-10-09T09:08:32.975Z,47.73
2018-10-09T09:11:01.732Z,48.53
2018-10-09T09:13:30.578Z,47.10
2018-10-09T09:15:59.323Z,46.83
2018-10-09T09:18:28.198Z,47.53
2018-10-09T09:20:56.965Z,46.63
2018-10-09T09:23:25.764Z,44.17
2018-10-09T09:25:54.557Z,44.43
2018-10-09T09:28:23.321Z,39.17
2018-10-09T09:30:52.138Z,40.90
2018-10-09T09:33:21.103Z,42.33
2018-10-09T09:35:49.881Z,43.43
2018-10-09T09:38:18.644Z,41.60
2018-10-09T09:40:48.058Z,43.27
2018-10-09T09:43:17.006Z,42.30
2018-10-09T09:45:45.830Z,40.33
2018-10-09T09:48:14.581Z,38.10
2018-10-09T09:50:43.313Z,31.23
2018-10-09T09:53:12.107Z,35.00
2018-10-09T09:55:41.138Z,27.90
2018-10-09T09:58:10.042Z,26.63
2018-10-09T10:00:43.917Z,30.33
2018-10-09T10:03:12.656Z,27.30
2018-10-09T10:05:41.457Z,29.83
2018-10-09T10:08:10.342Z,32.03
2018-10-09T10:10:39.069Z,31.77
2018-10-09T10:13:07.856Z,32.20
2018-10-09T10:15:36.673Z,30.83
2018-10-09T10:18:05.514Z,30.77
2018-10-09T10:20:34.278Z,34.27
2018-10-09T10:23:03.159Z,30.23
2018-10-09T10:25:32.030Z,32.33
2018-10-09T10:28:01.809Z,33.50
2018-10-09T10:30:30.597Z,34.70
2018-10-09T10:32:59.444Z,35.10
2018-10-09T10:35:28.272Z,35.73
2018-10-09T10:37:57.059Z,34.20
2018-10-09T10:40:25.821Z,39.27
2018-10-09T10:42:54.590Z,37.87
2018-10-09T10:45:23.336Z,38.63
2018-10-09T10:47:52.148Z,38.83
2018-10-09T10:50:20.903Z,36.30
2018-10-09T10:52:49.788Z,38.50
2018-10-09T10:55:18.656Z,38.73
2018-10-09T10:57:47.452Z,39.33
2018-10-09T11:00:17.206Z,37.80
2018-10-09T11:02:46.104Z,36.57
2018-10-09T11:05:14.950Z,36.23
2018-10-09T11:07:43.763Z,36.97
2018-10-09T11:10:12.573Z,35.53
2018-10-09T11:12:42.088Z,36.53
2018-10-09T11:15:10.920Z,35.17
2018-10-09T11:17:39.647Z,35.30
2018-10-09T11:20:09.491Z,31.43
2018-10-09T11:22:38.241Z,29.50
2018-10-09T11:25:07.077Z,32.00
2018-10-09T11:27:35.789Z,30.80
2018-10-09T11:30:04.774Z,28.40
2018-10-09T11:32:33.592Z,28.37
2018-10-09T11:35:02.360Z,29.77
2018-10-09T11:37:31.094Z,33.30
2018-10-09T11:40:00.141Z,33.13
2018-10-09T11:42:28.973Z,35.90
2018-10-09T11:44:57.736Z,34.77
2018-10-09T11:47:26.782Z,31.10
2018-10-09T11:49:55.523Z,29.70
2018-10-09T11:52:24.288Z,29.40
2018-10-09T11:54:53.046Z,28.60
2018-10-09T11:57:21.820Z,26.90
2018-10-09T11:59:50.985Z,24.43
2018-10-09T12:02:19.884Z,25.50
2018-10-09T12:04:48.632Z,24.70
2018-10-09T12:07:17.408Z,26.23
2018-10-09T12:09:46.168Z,27.17
2018-10-09T12:12:14.944Z,25.50
2018-10-09T12:14:43.689Z,26.20
2018-10-09T12:17:12.476Z,25.50
2018-10-09T12:19:41.330Z,25.80
2018-10-09T12:22:10.157Z,25.00
2018-10-09T12:24:38.912Z,26.77
2018-10-09T12:27:07.777Z,25.50
2018-10-09T12:29:36.512Z,26.50
2018-10-09T12:32:05.364Z,27.17
2018-10-09T12:34:34.134Z,24.03
2018-10-09T12:37:02.884Z,26.03
2018-10-09T12:39:31.689Z,27.10
2018-10-09T12:42:00.493Z,27.57
2018-10-09T12:44:29.284Z,27.07
2018-10-09T12:46:58.064Z,28.07
2018-10-09T12:49:26.814Z,26.97
2018-10-09T12:51:55.582Z,27.20
2018-10-09T12:54:24.345Z,27.60
2018-10-09T12:56:53.155Z,27.67
2018-10-09T12:59:21.858Z,28.10
2018-10-09T13:01:50.923Z,26.07
2018-10-09T13:04:20.526Z,24.90
2018-10-09T13:06:49.332Z,24.83
2018-10-09T13:09:18.155Z,26.73
2018-10-09T13:11:46.929Z,24.23
2018-10-09T13:14:15.697Z,25.90
2018-10-09T13:16:44.452Z,25.63
2018-10-09T13:19:13.226Z,26.07
2018-10-09T13:21:42.352Z,26.80
2018-10-09T13:24:11.041Z,27.27
2018-10-09T13:26:39.852Z,28.00
2018-10-09T13:29:08.561Z,25.70
2018-10-09T13:31:37.377Z,28.67
2018-10-09T13:34:06.241Z,27.00
2018-10-09T13:36:35.085Z,28.93
2018-10-09T13:39:05.352Z,28.60
2018-10-09T13:41:34.202Z,28.03
2018-10-09T13:44:03.247Z,29.07
2018-10-09T13:46:32.227Z,25.80
2018-10-09T13:49:01.196Z,24.87
2018-10-09T13:51:30.003Z,27.80
2018-10-09T13:53:58.778Z,27.73
2018-10-09T13:56:27.827Z,30.73
2018-10-09T13:58:56.610Z,30.00
2018-10-09T14:01:25.428Z,30.03
2018-10-09T14:03:54.553Z,28.70
2018-10-09T14:06:23.325Z,29.23
2018-10-09T14:08:52.464Z,30.53
2018-10-09T14:11:21.582Z,30.43
2018-10-09T14:13:50.341Z,29.37
2018-10-09T14:16:19.151Z,28.13
2018-10-09T14:18:47.913Z,29.07
2018-10-09T14:21:16.717Z,27.83
2018-10-09T14:23:45.751Z,29.80
2018-10-09T14:26:14.517Z,30.80
2018-10-09T14:28:43.277Z,33.33
2018-10-09T14:31:12.036Z,31.07
2018-10-09T14:33:40.776Z,32.47
2018-10-09T14:36:09.546Z,31.20
2018-10-09T14:38:38.378Z,33.27
2018-10-09T14:41:07.206Z,31.63
2018-10-09T14:43:35.965Z,31.60
2018-10-09T14:46:04.764Z,32.20
2018-10-09T14:48:33.599Z,33.97
2018-10-09T14:51:02.325Z,35.03
2018-10-09T14:53:31.418Z,32.73
2018-10-09T14:56:00.483Z,32.37
2018-10-09T14:58:29.397Z,35.10
2018-10-09T15:00:58.132Z,38.93
2018-10-09T15:03:26.949Z,37.10
2018-10-09T15:05:55.658Z,33.93
2018-10-09T15:08:24.424Z,36.13
2018-10-09T15:10:53.170Z,36.93
2018-10-09T15:13:21.994Z,36.33
2018-10-09T15:15:50.752Z,37.80
2018-10-09T15:18:19.569Z,37.57
2018-10-09T15:20:48.313Z,37.77
2018-10-09T15:23:17.165Z,39.30
2018-10-09T15:25:45.925Z,36.80
2018-10-09T15:28:15.152Z,37.87
2018-10-09T15:30:43.946Z,40.50
2018-10-09T15:33:12.684Z,39.10
2018-10-09T15:35:41.516Z,38.57
2018-10-09T15:38:10.307Z,38.60
2018-10-09T15:40:39.075Z,40.70
2018-10-09T15:43:07.933Z,38.70
2018-10-09T15:45:36.664Z,38.57
2018-10-09T15:48:05.503Z,40.30
2018-10-09T15:50:34.432Z,39.13
2018-10-09T15:53:03.340Z,39.73
2018-10-09T15:55:32.472Z,37.07
2018-10-09T15:58:01.276Z,40.80
2018-10-09T16:00:34.197Z,41.13
2018-10-09T16:03:02.995Z,42.30
2018-10-09T16:05:31.849Z,44.60
2018-10-09T16:08:00.575Z,42.70
2018-10-09T16:10:29.406Z,45.07
2018-10-09T16:12:58.137Z,42.10
2018-10-09T16:15:27.133Z,41.80
2018-10-09T16:17:55.876Z,44.73
2018-10-09T16:20:24.632Z,42.57
2018-10-09T16:22:53.471Z,43.23
2018-10-09T16:25:22.328Z,43.50
2018-10-09T16:27:51.114Z,40.20
2018-10-09T16:30:19.854Z,43.23
2018-10-09T16:32:48.734Z,43.10
2018-10-09T16:35:17.322Z,44.23
2018-10-09T16:37:46.256Z,41.33
2018-10-09T16:40:15.097Z,44.50
2018-10-09T16:42:43.896Z,44.07
2018-10-09T16:45:12.760Z,44.80
2018-10-09T16:47:41.480Z,41.67
2018-10-09T16:50:10.193Z,43.67
2018-10-09T16:52:38.952Z,43.33
2018-10-09T16:55:07.749Z,42.57
2018-10-09T16:57:36.526Z,44.77
2018-10-09T17:00:05.385Z,44.90
2018-10-09T17:02:34.182Z,46.80
2018-10-09T17:05:02.978Z,45.17
2018-10-09T17:07:31.724Z,45.60
2018-10-09T17:10:00.473Z,44.30
2018-10-09T17:12:29.282Z,41.37
2018-10-09T17:14:58.028Z,47.30
2018-10-09T17:17:26.853Z,41.80
2018-10-09T17:19:55.665Z,43.00
2018-10-09T17:22:24.549Z,44.50
2018-10-09T17:24:53.564Z,41.93
2018-10-09T17:27:22.372Z,45.97
2018-10-09T17:29:51.186Z,46.00
2018-10-09T17:32:19.966Z,46.73
2018-10-09T17:34:48.682Z,46.10
2018-10-09T17:37:17.469Z,48.07
2018-10-09T17:39:46.216Z,46.60
2018-10-09T17:42:15.041Z,43.60
2018-10-09T17:44:43.804Z,43.90
2018-10-09T17:47:12.606Z,44.17
2018-10-09T17:49:41.550Z,44.87
2018-10-09T17:52:10.983Z,47.13
2018-10-09T17:54:39.784Z,43.80
2018-10-09T17:57:08.620Z,44.30
2018-10-09T17:59:37.385Z,41.63
2018-10-09T18:02:06.239Z,44.07
2018-10-09T18:04:35.050Z,45.93
2018-10-09T18:07:03.809Z,44.10
2018-10-09T18:09:32.557Z,44.50
2018-10-09T18:12:01.548Z,44.30
2018-10-09T18:14:30.360Z,44.33
2018-10-09T18:16:59.192Z,44.03
2018-10-09T18:19:28.149Z,42.50
2018-10-09T18:21:56.932Z,46.10
2018-10-09T18:24:25.672Z,46.90
2018-10-09T18:26:54.555Z,45.23
2018-10-09T18:29:23.293Z,45.73
2018-10-09T18:31:52.043Z,44.73
2018-10-09T18:34:20.865Z,45.00
2018-10-09T18:36:49.662Z,43.57
2018-10-09T18:39:18.431Z,44.50
2018-10-09T18:41:47.599Z,45.10
2018-10-09T18:44:16.410Z,46.20
2018-10-09T18:46:45.190Z,47.50
2018-10-09T18:49:13.952Z,46.00
2018-10-09T18:51:42.872Z,46.77
2018-10-09T18:54:11.712Z,46.03
2018-10-09T18:56:40.433Z,46.80
2018-10-09T18:59:09.164Z,45.83
2018-10-09T19:01:37.909Z,46.07
2018-10-09T19:04:06.893Z,51.47
2018-10-09T19:06:35.749Z,48.70
2018-10-09T19:09:07.281Z,50.70
2018-10-09T19:11:36.280Z,48.43
2018-10-09T19:14:05.064Z,49.17
2018-10-09T19:16:33.865Z,52.67
2018-10-09T19:19:02.926Z,47.30
2018-10-09T19:21:31.650Z,49.90
2018-10-09T19:24:00.449Z,53.83
2018-10-09T19:26:29.257Z,51.53
2018-10-09T19:28:58.008Z,48.17
2018-10-09T19:31:26.760Z,52.10
2018-10-09T19:33:55.586Z,52.17
2018-10-09T19:36:24.356Z,52.53
2018-10-09T19:38:53.192Z,52.13
2018-10-09T19:41:21.937Z,52.23
2018-10-09T19:43:51.402Z,52.60
2018-10-09T19:46:20.165Z,51.77
2018-10-09T19:48:48.924Z,52.07
2018-10-09T19:51:17.833Z,53.60
2018-10-09T19:53:46.608Z,50.80
2018-10-09T19:56:15.375Z,53.07
2018-10-09T19:58:44.144Z,51.50
2018-10-09T20:01:13.334Z,54.07
2018-10-09T20:03:42.048Z,51.50
2018-10-09T20:06:10.814Z,52.97
2018-10-09T20:08:39.624Z,52.67
2018-10-09T20:11:08.441Z,51.47
2018-10-09T20:13:37.164Z,53.17
2018-10-09T20:16:06.065Z,49.73
2018-10-09T20:18:34.873Z,51.27
2018-10-09T20:21:03.651Z,53.30
2018-10-09T20:23:32.440Z,54.13
2018-10-09T20:26:01.264Z,54.93
2018-10-09T20:28:30.013Z,51.00
2018-10-09T20:30:59.056Z,56.50
2018-10-09T20:33:27.911Z,50.53
2018-10-09T20:35:56.883Z,49.87
2018-10-09T20:38:25.752Z,50.53
2018-10-09T20:40:54.544Z,53.60
2018-10-09T20:43:23.402Z,52.20
2018-10-09T20:45:52.124Z,51.70
2018-10-09T20:48:20.921Z,51.67
2018-10-09T20:50:49.652Z,53.97
2018-10-09T20:53:18.405Z,50.13
2018-10-09T20:55:47.132Z,49.33
2018-10-09T20:58:15.916Z,49.10
2018-10-09T21:00:44.684Z,50.63
2018-10-09T21:03:13.433Z,51.00
2018-10-09T21:05:42.300Z,52.40
2018-10-09T21:08:10.999Z,49.23
2018-10-09T21:10:39.741Z,52.20
2018-10-09T21:13:08.560Z,49.83
2018-10-09T21:15:37.349Z,48.80
2018-10-09T21:18:06.492Z,52.90
2018-10-09T21:20:35.293Z,50.40
2018-10-09T21:23:04.024Z,50.53
2018-10-09T21:25:32.825Z,50.73
2018-10-09T21:28:01.813Z,50.00
2018-10-09T21:30:30.573Z,50.33
2018-10-09T21:32:59.565Z,51.30
2018-10-09T21:35:28.508Z,51.43
2018-10-09T21:37:57.354Z,53.47
2018-10-09T21:40:26.133Z,53.93
2018-10-09T21:42:54.841Z,54.90
2018-10-09T21:45:23.719Z,53.07
2018-10-09T21:47:58.332Z,54.83
2018-10-09T21:50:27.973Z,53.00
2018-10-09T21:52:57.012Z,56.40
2018-10-09T21:55:26.065Z,54.27
2018-10-09T21:57:55.323Z,53.90
2018-10-09T22:00:24.187Z,53.20
2018-10-09T22:02:52.968Z,56.80
2018-10-09T22:05:21.799Z,56.23
2018-10-09T22:07:50.794Z,54.80
2018-10-09T22:10:19.929Z,54.30
2018-10-09T22:12:48.693Z,57.07
2018-10-09T22:15:17.415Z,57.00
2018-10-09T22:17:46.197Z,54.57
2018-10-09T22:20:14.940Z,55.50
2018-10-09T22:22:43.681Z,56.07
2018-10-09T22:25:12.490Z,54.90
2018-10-09T22:27:41.235Z,54.00
2018-10-09T22:30:10.048Z,54.40
2018-10-09T22:32:38.800Z,51.80
2018-10-09T22:35:07.580Z,52.97
2018-10-09T22:37:36.304Z,50.97
2018-10-09T22:40:05.143Z,50.50
2018-10-09T22:42:33.865Z,52.53
2018-10-09T22:45:02.953Z,50.13
2018-10-09T22:47:31.705Z,50.30
2018-10-09T22:50:00.475Z,50.10
2018-10-09T22:52:29.229Z,49.30
2018-10-09T22:54:57.973Z,49.40
2018-10-09T22:57:26.745Z,47.47
2018-10-09T22:59:55.474Z,47.93
2018-10-09T23:02:24.197Z,51.53
2018-10-09T23:04:52.936Z,49.23
2018-10-09T23:07:21.686Z,49.73
2018-10-09T23:09:50.521Z,51.70
2018-10-09T23:12:19.253Z,50.97
2018-10-09T23:14:47.992Z,51.00
2018-10-09T23:17:16.741Z,51.17
2018-10-09T23:19:45.477Z,50.50
2018-10-09T23:22:14.194Z,52.90
2018-10-09T23:24:42.968Z,54.90
2018-10-09T23:27:11.781Z,53.67
2018-10-09T23:29:40.536Z,55.00
2018-10-09T23:32:09.321Z,52.67
2018-10-09T23:34:38.106Z,54.40
2018-10-09T23:37:06.892Z,53.77
2018-10-09T23:39:35.564Z,54.10
2018-10-09T23:42:04.514Z,53.77
2018-10-09T23:44:33.338Z,52.33
2018-10-09T23:47:02.111Z,52.23
2018-10-09T23:49:30.843Z,54.50
2018-10-09T23:51:59.603Z,52.10
2018-10-09T23:54:28.332Z,50.27
2018-10-09T23:56:57.191Z,51.83
2018-10-09T23:59:26.183Z,51.60
